Terminal Aerodrome Forecast
Issued by NWS

Home | Current Version | Previous Version | Graphics & Text | Print | Product List | Glossary On
Versions: 1 2 3 4 5 6 7 8 9 10 11 12 13 14 15 16 17 18 19 20 21 22 23 24 25 26 27 28 29 30 31
000
FTUS43 KGRB 281700
TAFRHI
TAF
KRHI 281720Z 2818/2918 22006KT P6SM SCT050 SCT250
     FM290000 22003KT P6SM SCT250
     FM290500 27003KT 4SM BR SCT003 SCT050
      TEMPO 2905/2909 1/2SM FG VV003
     FM290900 33004KT 3SM BR VCSH SCT006 OVC050 PROB30 2909/2914 1
      1/2SM -SHRA BR BKN006
     FM291400 01008KT P6SM -SHRA SCT008 OVC015
      TEMPO 2914/2918 5SM SHRA BR OVC008=

USA.gov is the U.S. government's official web portal to all federal, state and local government web resources and services.